Time;durP1;ratioP1;P1;durP2;ratioP2;P2;SDS_P1;SDS_P2;PMS_P1;PMS_P2;Temp;Humidity;BMP_temperature;BMP_pressure;BME280_temperature;BME280_humidity;BME280_pressure;Samples;Min_cycle;Max_cycle;Signal;HPM_P1;HPM_P2
2021/04/28 00:01:44;;;;;;;0.10;0.10;;;13.40;99.90;;;;;;5013820;28;20504;-86
2021/04/28 00:04:10;;;;;;;0.10;0.10;;;13.40;99.90;;;;;;4999007;28;20026;-87
2021/04/28 00:06:36;;;;;;;0.35;0.35;;;13.40;99.90;;;;;;5009921;28;20573;-87
2021/04/28 00:09:05;;;;;;;0.10;0.10;;;13.50;99.90;;;;;;4995893;28;20042;-87
2021/04/28 00:11:32;;;;;;;0.20;0.20;;;13.50;99.90;;;;;;4992186;28;20022;-87
2021/04/28 00:13:58;;;;;;;0.08;0.08;;;13.50;99.90;;;;;;4997968;28;20026;-88
2021/04/28 00:16:25;;;;;;;0.17;0.17;;;13.50;99.90;;;;;;5007693;28;20030;-87
2021/04/28 00:18:51;;;;;;;0.03;0.03;;;13.40;99.90;;;;;;5012347;28;20022;-86
2021/04/28 00:21:17;;;;;;;0.57;0.57;;;13.40;99.90;;;;;;5010277;28;20022;-87
2021/04/28 00:23:43;;;;;;;0.30;0.30;;;13.40;99.90;;;;;;5007311;28;20452;-87
2021/04/28 00:26:13;;;;;;;0.20;0.20;;;13.40;99.90;;;;;;5001638;28;20029;-87
2021/04/28 00:28:40;;;;;;;0.30;0.30;;;13.30;99.90;;;;;;5002100;28;20053;-86
2021/04/28 00:31:06;;;;;;;4.32;0.38;;;13.20;99.90;;;;;;5009280;28;20045;-86
2021/04/28 00:33:32;;;;;;;0.40;0.40;;;13.10;99.90;;;;;;5001225;28;20047;-86
2021/04/28 00:35:58;;;;;;;0.10;0.10;;;13.20;99.90;;;;;;4991929;28;20269;-88
2021/04/28 00:38:24;;;;;;;0.15;0.15;;;13.20;99.90;;;;;;4999886;28;20022;-88
2021/04/28 00:40:50;;;;;;;0.50;0.50;;;13.10;99.90;;;;;;5010727;28;20037;-87
2021/04/28 00:43:17;;;;;;;0.23;0.23;;;13.10;99.90;;;;;;5011796;28;20022;-88
2021/04/28 00:45:43;;;;;;;0.40;0.40;;;13.10;99.90;;;;;;4997725;28;20065;-88
2021/04/28 00:48:11;;;;;;;0.20;0.20;;;13.00;99.90;;;;;;4995434;28;20023;-87
2021/04/28 00:50:45;;;;;;;0.20;0.20;;;13.00;99.90;;;;;;5011069;28;20026;-87
2021/04/28 00:53:17;;;;;;;0.00;0.00;;;13.00;99.90;;;;;;5010088;28;20405;-87
2021/04/28 00:55:43;;;;;;;0.15;0.15;;;12.90;99.90;;;;;;5000456;28;20133;-87
2021/04/28 00:58:09;;;;;;;0.10;0.10;;;12.90;99.90;;;;;;5010944;28;20108;-88
2021/04/28 01:00:36;;;;;;;0.10;0.10;;;12.80;99.90;;;;;;5006893;28;20116;-88
2021/04/28 01:03:03;;;;;;;;;;;12.80;99.90;;;;;;5008385;28;20042;-88
2021/04/28 01:05:29;;;;;;;0.10;0.10;;;13.00;99.90;;;;;;5009383;28;20397;-88
2021/04/28 01:07:55;;;;;;;0.20;0.20;;;13.00;99.90;;;;;;5009043;28;20038;-88
2021/04/28 01:10:25;;;;;;;2.97;1.50;;;12.70;1.00;;;;;;5007800;28;20033;-87
2021/04/28 01:12:52;;;;;;;0.80;0.47;;;12.80;1.00;;;;;;5010444;28;20014;-87
2021/04/28 01:15:21;;;;;;;0.10;0.10;;;12.90;1.00;;;;;;5010815;28;20115;-87
2021/04/28 01:17:46;;;;;;;0.30;0.30;;;12.80;1.00;;;;;;5010817;28;20520;-88
2021/04/28 01:20:15;;;;;;;0.10;0.10;;;12.80;1.00;;;;;;5009199;28;20042;-86
2021/04/28 01:22:43;;;;;;;0.30;0.30;;;12.70;1.00;;;;;;5009975;28;20030;-87
2021/04/28 01:25:11;;;;;;;0.32;0.32;;;12.80;1.00;;;;;;5008830;28;20057;-86
2021/04/28 01:27:41;;;;;;;0.20;0.20;;;12.80;1.00;;;;;;5005980;28;20026;-86
2021/04/28 01:30:08;;;;;;;0.43;0.43;;;12.80;1.00;;;;;;4993665;28;20029;-87
2021/04/28 01:32:41;;;;;;;0.10;0.10;;;12.90;1.00;;;;;;5004355;28;20018;-87
2021/04/28 01:35:08;;;;;;;0.00;0.00;;;12.90;6.10;;;;;;5001663;28;20088;-87
2021/04/28 01:37:35;;;;;;;0.22;0.22;;;12.70;19.00;;;;;;4991845;28;20037;-87
2021/04/28 01:40:03;;;;;;;0.40;0.40;;;12.60;34.20;;;;;;5005567;28;20052;-87
2021/04/28 01:42:29;;;;;;;0.10;0.10;;;12.70;99.90;;;;;;5024036;28;20504;-86
2021/04/28 01:44:56;;;;;;;0.00;0.00;;;12.60;99.90;;;;;;5006316;28;20026;-86
2021/04/28 01:47:22;;;;;;;8.40;1.90;;;12.60;99.90;;;;;;4991243;28;20030;-87
2021/04/28 01:49:50;;;;;;;0.28;0.28;;;12.50;99.90;;;;;;5007984;28;20036;-86
2021/04/28 01:52:16;;;;;;;0.77;0.30;;;12.40;99.90;;;;;;4994154;28;20054;-87
2021/04/28 01:54:45;;;;;;;0.10;0.10;;;12.40;99.90;;;;;;4994777;28;20034;-87
2021/04/28 01:57:11;;;;;;;0.40;0.40;;;12.40;99.90;;;;;;5007678;28;20053;-87
2021/04/28 01:59:39;;;;;;;0.20;0.20;;;12.50;94.90;;;;;;5007517;28;20542;-87
2021/04/28 02:02:07;;;;;;;0.30;0.30;;;12.50;63.70;;;;;;5010192;28;20021;-88
2021/04/28 02:04:35;;;;;;;1.52;0.47;;;12.40;1.00;;;;;;5005264;28;20026;-87
2021/04/28 02:07:00;;;;;;;1.83;0.40;;;12.50;1.00;;;;;;5007662;28;20584;-87
2021/04/28 02:09:26;;;;;;;0.28;0.28;;;12.50;1.00;;;;;;5009594;28;20036;-86
2021/04/28 02:11:52;;;;;;;1.42;0.68;;;12.50;1.00;;;;;;4991698;28;20029;-87
2021/04/28 02:14:22;;;;;;;0.85;0.28;;;12.50;1.00;;;;;;4989527;28;20026;-87
2021/04/28 02:16:49;;;;;;;0.45;0.40;;;12.50;99.90;;;;;;5001211;28;20026;-88
2021/04/28 02:19:15;;;;;;;;;;;12.40;99.90;;;;;;5000975;28;20052;-87
2021/04/28 02:21:49;;;;;;;0.00;0.00;;;12.40;99.90;;;;;;5008676;28;19924;-87
2021/04/28 02:24:15;;;;;;;0.20;0.20;;;12.40;99.90;;;;;;5009805;28;20132;-87
2021/04/28 02:26:42;;;;;;;0.40;0.40;;;12.40;99.90;;;;;;5007051;28;20030;-87
2021/04/28 02:29:08;;;;;;;0.20;0.20;;;12.40;99.90;;;;;;4996187;28;20383;-88
2021/04/28 02:31:35;;;;;;;0.08;0.08;;;12.40;99.90;;;;;;4998980;28;20454;-87
2021/04/28 02:34:03;;;;;;;0.13;0.13;;;12.40;99.90;;;;;;4995545;28;20101;-88
2021/04/28 02:36:36;;;;;;;0.77;0.77;;;12.50;99.90;;;;;;5000857;28;20033;-88
2021/04/28 02:39:10;;;;;;;0.80;0.55;;;12.50;99.90;;;;;;5005960;28;20101;-88
2021/04/28 02:41:42;;;;;;;0.30;0.22;;;12.50;99.90;;;;;;5008263;28;20030;-87
2021/04/28 02:44:11;;;;;;;0.00;0.00;;;12.30;99.90;;;;;;4997772;28;20030;-87
2021/04/28 02:46:38;;;;;;;0.28;0.28;;;12.40;99.90;;;;;;5021642;28;20449;-87
2021/04/28 02:49:05;;;;;;;0.20;0.20;;;12.40;99.90;;;;;;5004284;28;20030;-87
2021/04/28 02:51:31;;;;;;;;;;;12.40;99.90;;;;;;5000205;28;20030;-88
2021/04/28 02:53:59;;;;;;;0.15;0.15;;;12.40;99.90;;;;;;5005314;28;19955;-88
2021/04/28 02:56:28;;;;;;;0.38;0.20;;;12.40;99.90;;;;;;5000311;28;20398;-87
2021/04/28 02:58:55;;;;;;;0.43;0.32;;;12.50;99.90;;;;;;4988672;28;20034;-87
2021/04/28 03:01:22;;;;;;;1.30;0.85;;;12.50;99.90;;;;;;4998697;28;20032;-87
2021/04/28 03:03:49;;;;;;;0.08;0.08;;;12.30;99.90;;;;;;5008335;28;20033;-87
2021/04/28 03:06:16;;;;;;;0.40;0.40;;;12.30;99.90;;;;;;5002981;28;20402;-87
2021/04/28 03:08:43;;;;;;;0.20;0.20;;;12.40;99.90;;;;;;5003795;28;20554;-88
2021/04/28 03:11:10;;;;;;;0.30;0.30;;;12.40;99.90;;;;;;4990204;28;20034;-87
2021/04/28 03:13:37;;;;;;;;;;;12.40;99.90;;;;;;5005311;28;20121;-87
2021/04/28 03:16:02;;;;;;;0.10;0.10;;;12.40;99.90;;;;;;5003387;28;19940;-88
2021/04/28 03:18:29;;;;;;;0.20;0.20;;;12.30;99.90;;;;;;5009081;28;20030;-87
2021/04/28 03:20:55;;;;;;;0.70;0.70;;;12.30;99.90;;;;;;4990458;28;20053;-87
2021/04/28 03:23:21;;;;;;;1.20;0.25;;;12.30;99.90;;;;;;5013693;28;20042;-87
2021/04/28 03:25:47;;;;;;;0.20;0.20;;;12.40;99.90;;;;;;5012736;28;20073;-87
2021/04/28 03:28:13;;;;;;;0.20;0.20;;;12.40;99.90;;;;;;5011243;28;20030;-87
2021/04/28 03:30:39;;;;;;;0.20;0.20;;;12.40;99.90;;;;;;5011656;28;20026;-86
2021/04/28 03:33:05;;;;;;;1.47;1.23;;;12.50;99.90;;;;;;5009825;28;20040;-87
2021/04/28 03:35:31;;;;;;;2.80;0.40;;;12.50;99.90;;;;;;4998001;28;20029;-87
2021/04/28 03:37:57;;;;;;;0.20;0.20;;;12.50;99.90;;;;;;4992604;28;20029;-87
2021/04/28 03:40:23;;;;;;;0.10;0.10;;;12.50;99.90;;;;;;4998705;28;20038;-88
2021/04/28 03:42:48;;;;;;;0.17;0.17;;;12.50;99.90;;;;;;5010812;28;20042;-88
2021/04/28 03:45:14;;;;;;;0.40;0.35;;;12.40;99.90;;;;;;5010918;28;20029;-88
2021/04/28 03:47:40;;;;;;;2.25;0.47;;;12.40;99.90;;;;;;5010157;28;20030;-87
2021/04/28 03:50:07;;;;;;;0.30;0.20;;;12.50;99.90;;;;;;4996809;28;20584;-87
2021/04/28 03:52:33;;;;;;;0.60;0.52;;;12.50;99.90;;;;;;5012070;28;20026;-87
2021/04/28 03:54:58;;;;;;;0.10;0.10;;;12.50;99.90;;;;;;4999513;28;20038;-87
2021/04/28 03:57:24;;;;;;;0.20;0.20;;;12.60;99.90;;;;;;5001693;28;20043;-87
2021/04/28 03:59:50;;;;;;;0.10;0.10;;;12.50;99.90;;;;;;4997165;28;20026;-88
2021/04/28 04:02:16;;;;;;;0.10;0.10;;;12.60;99.90;;;;;;5007515;28;20462;-87
2021/04/28 04:04:41;;;;;;;0.13;0.13;;;12.50;99.90;;;;;;5012307;28;21929;-87
2021/04/28 04:07:07;;;;;;;0.15;0.15;;;12.60;99.90;;;;;;5010643;28;20524;-88
2021/04/28 04:09:33;;;;;;;2.40;0.23;;;12.50;99.90;;;;;;4994485;28;20442;-88
2021/04/28 04:11:59;;;;;;;6.88;0.40;;;12.50;99.90;;;;;;5008464;28;20026;-87
2021/04/28 04:14:24;;;;;;;0.35;0.35;;;12.50;99.90;;;;;;5001767;28;20046;-87
2021/04/28 04:16:50;;;;;;;0.10;0.10;;;12.50;99.90;;;;;;5001034;28;20022;-88
2021/04/28 04:19:16;;;;;;;1.08;0.47;;;12.60;99.90;;;;;;5002005;28;20034;-87
2021/04/28 04:21:42;;;;;;;0.13;0.13;;;12.50;99.90;;;;;;4995820;28;20106;-88
2021/04/28 04:24:08;;;;;;;0.20;0.20;;;12.50;99.90;;;;;;5005796;28;20049;-88
2021/04/28 04:26:34;;;;;;;0.88;0.30;;;12.50;99.90;;;;;;5012019;28;20441;-87
2021/04/28 04:29:01;;;;;;;0.10;0.10;;;12.50;99.90;;;;;;5010089;28;20100;-87
2021/04/28 04:31:26;;;;;;;0.32;0.32;;;12.40;99.90;;;;;;5011297;28;20030;-87
2021/04/28 04:33:52;;;;;;;0.10;0.03;;;12.40;99.90;;;;;;5002493;28;20850;-87
2021/04/28 04:36:18;;;;;;;0.23;0.23;;;12.50;99.90;;;;;;5000365;28;20548;-87
2021/04/28 04:38:44;;;;;;;0.22;0.22;;;12.50;99.90;;;;;;4991354;28;20129;-87
2021/04/28 04:41:10;;;;;;;0.03;0.03;;;12.50;99.90;;;;;;4992905;28;20045;-87
2021/04/28 04:43:36;;;;;;;0.30;0.30;;;12.40;99.90;;;;;;5004868;28;20034;-89
2021/04/28 04:46:01;;;;;;;0.00;0.00;;;12.30;99.90;;;;;;5004810;28;20092;-88
2021/04/28 04:48:27;;;;;;;0.08;0.08;;;12.40;99.90;;;;;;5011105;28;20044;-88
2021/04/28 04:50:53;;;;;;;0.03;0.03;;;12.50;99.90;;;;;;5009291;28;20073;-87
2021/04/28 04:53:19;;;;;;;0.73;0.73;;;12.50;99.90;;;;;;4997438;28;20041;-88
2021/04/28 04:55:45;;;;;;;0.10;0.10;;;12.50;99.90;;;;;;4999847;28;20030;-89
2021/04/28 04:58:10;;;;;;;0.60;0.52;;;12.40;99.90;;;;;;5009587;28;20531;-88
2021/04/28 05:00:36;;;;;;;0.17;0.17;;;12.40;99.90;;;;;;5003278;28;20038;-88
2021/04/28 05:03:02;;;;;;;0.30;0.30;;;12.30;99.90;;;;;;5009484;28;20062;-88
2021/04/28 05:05:28;;;;;;;0.00;0.00;;;12.30;99.90;;;;;;5009033;28;20681;-89
2021/04/28 05:07:54;;;;;;;2.15;0.73;;;12.30;99.90;;;;;;5005576;28;20022;-89
2021/04/28 05:10:22;;;;;;;0.22;0.22;;;12.30;99.90;;;;;;5004003;28;20076;-88
2021/04/28 05:12:48;;;;;;;0.35;0.35;;;12.40;99.90;;;;;;5000065;28;20029;-88
2021/04/28 05:15:16;;;;;;;0.10;0.10;;;12.40;99.90;;;;;;5010168;28;20116;-87
2021/04/28 05:17:43;;;;;;;0.45;0.45;;;12.50;99.90;;;;;;5002590;28;20038;-87
2021/04/28 05:20:10;;;;;;;5.05;1.95;;;12.40;99.90;;;;;;5004125;28;20041;-88
2021/04/28 05:22:37;;;;;;;0.13;0.13;;;12.40;99.90;;;;;;4995411;28;20088;-88
2021/04/28 05:25:04;;;;;;;0.45;0.20;;;12.50;99.90;;;;;;4991326;28;20058;-87
2021/04/28 05:27:30;;;;;;;0.10;0.10;;;12.60;99.90;;;;;;4999727;28;20058;-88
2021/04/28 05:29:56;;;;;;;0.10;0.10;;;12.50;99.90;;;;;;5005533;28;20110;-88
2021/04/28 05:32:22;;;;;;;1.60;0.37;;;12.50;99.90;;;;;;5011044;28;20021;-88
2021/04/28 05:34:49;;;;;;;0.17;0.17;;;12.50;99.90;;;;;;5011121;28;20444;-88
2021/04/28 05:37:19;;;;;;;0.57;0.57;;;12.60;14.90;;;;;;5009730;28;20060;-88
2021/04/28 05:39:49;;;;;;;0.20;0.20;;;12.50;99.90;;;;;;5013768;28;20383;-87
2021/04/28 05:42:18;;;;;;;0.00;0.00;;;12.60;99.90;;;;;;4998566;28;20022;-87
2021/04/28 05:44:46;;;;;;;0.35;0.35;;;12.60;99.90;;;;;;5009101;28;20030;-88
2021/04/28 05:47:12;;;;;;;0.00;0.00;;;12.60;99.90;;;;;;4993746;28;20077;-90
2021/04/28 05:49:37;;;;;;;0.38;0.25;;;12.60;19.00;;;;;;5005276;28;20037;-89
2021/04/28 05:52:04;;;;;;;0.13;0.13;;;12.60;99.90;;;;;;5003792;28;20833;-91
2021/04/28 05:54:30;;;;;;;2.72;0.20;;;12.50;99.90;;;;;;5013849;28;20026;-89
2021/04/28 05:56:57;;;;;;;1.17;1.13;;;12.50;99.90;;;;;;5003945;28;20508;-90
2021/04/28 05:59:23;;;;;;;0.30;0.30;;;12.60;99.90;;;;;;5003205;28;20873;-89
2021/04/28 06:01:49;;;;;;;0.25;0.25;;;12.60;99.90;;;;;;5006626;28;20026;-89
2021/04/28 06:04:15;;;;;;;0.30;0.30;;;12.70;99.90;;;;;;5007037;28;20028;-89
2021/04/28 06:06:48;;;;;;;0.10;0.10;;;12.80;99.90;;;;;;5005928;28;20498;-89
2021/04/28 06:09:16;;;;;;;0.73;0.50;;;12.80;99.90;;;;;;5017367;28;20048;-88
2021/04/28 06:11:41;;;;;;;0.10;0.10;;;12.70;99.90;;;;;;5006358;28;20037;-89
2021/04/28 06:14:07;;;;;;;0.10;0.10;;;12.70;99.90;;;;;;5006975;28;20749;-89
2021/04/28 06:16:34;;;;;;;0.10;0.10;;;12.70;99.90;;;;;;5000350;28;20028;-87
2021/04/28 06:18:59;;;;;;;0.08;0.08;;;12.70;99.90;;;;;;5001515;28;20054;-88
2021/04/28 06:21:26;;;;;;;0.27;0.27;;;12.70;99.90;;;;;;5019431;28;20494;-88
2021/04/28 06:23:52;;;;;;;0.03;0.03;;;12.60;99.90;;;;;;5002522;28;20029;-89
2021/04/28 06:26:19;;;;;;;0.15;0.15;;;12.60;99.90;;;;;;5000923;28;20018;-89
2021/04/28 06:28:45;;;;;;;;;;;12.70;99.90;;;;;;5001388;28;20023;-89
2021/04/28 06:31:17;;;;;;;0.38;0.38;;;12.80;99.90;;;;;;4997893;28;19913;-88
2021/04/28 06:33:47;;;;;;;0.20;0.20;;;12.80;99.90;;;;;;5002752;28;20030;-87
2021/04/28 06:36:13;;;;;;;0.45;0.45;;;12.90;99.90;;;;;;5001079;28;20884;-87
2021/04/28 06:38:39;;;;;;;0.22;0.20;;;12.80;99.90;;;;;;5003865;28;20034;-87
2021/04/28 06:41:06;;;;;;;0.28;0.28;;;12.90;99.90;;;;;;5005576;28;20025;-89
2021/04/28 06:43:31;;;;;;;0.67;0.47;;;12.90;99.90;;;;;;5004916;28;20057;-88
2021/04/28 06:45:58;;;;;;;0.57;0.57;;;12.80;99.90;;;;;;5004123;28;20272;-88
2021/04/28 06:48:25;;;;;;;0.65;0.45;;;12.90;99.90;;;;;;5002334;28;20429;-87
2021/04/28 06:50:51;;;;;;;;;;;12.80;99.90;;;;;;5000212;28;20457;-89
2021/04/28 06:53:17;;;;;;;4.35;0.98;;;12.90;99.90;;;;;;4998879;28;19913;-88
2021/04/28 06:55:44;;;;;;;0.30;0.30;;;12.80;99.90;;;;;;5001351;28;20068;-87
2021/04/28 06:58:10;;;;;;;0.20;0.20;;;12.90;99.90;;;;;;5003014;28;20037;-87
2021/04/28 07:00:37;;;;;;;0.10;0.10;;;12.90;99.90;;;;;;5003633;28;20034;-88
2021/04/28 07:03:02;;;;;;;1.17;0.60;;;13.00;99.90;;;;;;4998295;28;20037;-87
2021/04/28 07:05:29;;;;;;;0.98;0.55;;;13.00;99.90;;;;;;5004305;28;20521;-88
2021/04/28 07:08:00;;;;;;;0.10;0.10;;;13.10;99.90;;;;;;4994417;28;20026;-87
2021/04/28 07:10:26;;;;;;;12.18;1.95;;;13.00;99.90;;;;;;5001033;28;20120;-89
2021/04/28 07:12:52;;;;;;;0.30;0.30;;;12.90;99.90;;;;;;4996191;28;20402;-87
2021/04/28 07:15:18;;;;;;;0.43;0.43;;;12.80;99.90;;;;;;5017052;28;20076;-87
2021/04/28 07:17:48;;;;;;;0.75;0.75;;;12.70;99.90;;;;;;5004088;28;20026;-87
2021/04/28 07:20:15;;;;;;;0.20;0.20;;;12.60;99.90;;;;;;5002422;28;20033;-88
2021/04/28 07:22:40;;;;;;;0.55;0.45;;;12.60;99.90;;;;;;5001326;28;20028;-86
2021/04/28 07:25:09;;;;;;;2.33;0.45;;;12.60;99.90;;;;;;5000673;28;20411;-88
2021/04/28 07:27:35;;;;;;;0.20;0.20;;;12.50;99.90;;;;;;4999962;28;20038;-86
2021/04/28 07:30:01;;;;;;;0.73;0.73;;;12.50;99.90;;;;;;5005855;28;20038;-86
2021/04/28 07:32:26;;;;;;;1.95;0.95;;;12.40;99.90;;;;;;5012988;28;20105;-86
2021/04/28 07:34:52;;;;;;;0.20;0.20;;;12.40;99.90;;;;;;5005060;28;20398;-88
2021/04/28 07:37:18;;;;;;;0.90;0.77;;;12.50;99.90;;;;;;5017890;28;20030;-87
2021/04/28 07:39:44;;;;;;;0.22;0.22;;;12.60;99.90;;;;;;5000608;28;20056;-86
2021/04/28 07:42:10;;;;;;;0.20;0.20;;;12.60;99.90;;;;;;5000486;28;20046;-85
2021/04/28 07:44:36;;;;;;;0.20;0.20;;;12.70;99.90;;;;;;4997815;28;20092;-88
2021/04/28 07:47:02;;;;;;;1.97;1.07;;;12.70;99.90;;;;;;4993940;28;20030;-89
2021/04/28 07:49:28;;;;;;;0.88;0.88;;;12.50;99.90;;;;;;4992792;28;20030;-89
2021/04/28 07:51:54;;;;;;;1.13;0.90;;;12.70;1.00;;;;;;4994479;28;20069;-88
2021/04/28 07:54:20;;;;;;;0.43;0.38;;;12.80;99.90;;;;;;5002452;28;20026;-88
2021/04/28 07:56:48;;;;;;;0.22;0.22;;;13.00;99.90;;;;;;4998238;28;20050;-90
2021/04/28 07:59:14;;;;;;;0.30;0.30;;;13.10;99.90;;;;;;5005123;28;20026;-89
2021/04/28 08:01:41;;;;;;;0.32;0.32;;;13.30;99.90;;;;;;4999582;28;20028;-88
2021/04/28 08:04:07;;;;;;;0.40;0.40;;;13.50;99.90;;;;;;4997872;28;20490;-89
2021/04/28 08:06:33;;;;;;;1.60;0.63;;;13.50;99.90;;;;;;5001113;28;20111;-90
2021/04/28 08:08:59;;;;;;;0.30;0.30;;;13.60;99.90;;;;;;5017645;28;20030;-90
2021/04/28 08:11:26;;;;;;;0.10;0.10;;;13.60;99.90;;;;;;4997261;28;20076;-89
2021/04/28 08:13:52;;;;;;;0.38;0.38;;;13.60;99.90;;;;;;5008413;28;20068;-89
2021/04/28 08:16:20;;;;;;;0.10;0.10;;;13.60;99.90;;;;;;4999041;28;20037;-88
2021/04/28 08:18:53;;;;;;;0.47;0.47;;;13.40;99.90;;;;;;5003251;28;20060;-89
2021/04/28 08:21:18;;;;;;;0.75;0.75;;;13.30;99.90;;;;;;5004248;28;20097;-89
2021/04/28 08:23:44;;;;;;;0.30;0.30;;;13.40;99.90;;;;;;5003580;28;20037;-89
2021/04/28 08:26:12;;;;;;;3.13;0.57;;;13.40;99.90;;;;;;5007159;28;20034;-88
2021/04/28 08:28:41;;;;;;;0.82;0.82;;;13.60;99.90;;;;;;5008732;28;20684;-89
2021/04/28 08:31:09;;;;;;;0.57;0.57;;;13.50;99.90;;;;;;5011194;28;20029;-89
2021/04/28 08:33:35;;;;;;;0.50;0.50;;;13.50;99.90;;;;;;5011089;28;20145;-89
2021/04/28 08:36:02;;;;;;;0.20;0.20;;;13.30;99.90;;;;;;5002435;28;20065;-89
2021/04/28 08:38:28;;;;;;;0.20;0.20;;;13.10;99.90;;;;;;5002918;28;20026;-89
2021/04/28 08:40:54;;;;;;;0.63;0.63;;;13.00;99.90;;;;;;5003655;28;20026;-89
2021/04/28 08:43:24;;;;;;;0.25;0.25;;;13.00;99.90;;;;;;5004778;28;20327;-89
2021/04/28 08:45:52;;;;;;;0.40;0.40;;;13.00;99.90;;;;;;4997456;28;20112;-89
2021/04/28 08:48:18;;;;;;;0.10;0.10;;;13.40;99.90;;;;;;5001442;28;20030;-89
2021/04/28 08:50:46;;;;;;;0.10;0.10;;;13.30;99.90;;;;;;5000809;28;20044;-88
2021/04/28 08:53:14;;;;;;;0.40;0.40;;;13.20;99.90;;;;;;5000672;28;20671;-89
2021/04/28 08:55:40;;;;;;;0.10;0.10;;;13.00;99.90;;;;;;4997325;28;20049;-90
2021/04/28 08:58:07;;;;;;;0.30;0.30;;;12.40;99.90;;;;;;5008134;28;20079;-90
2021/04/28 09:00:34;;;;;;;0.70;0.55;;;12.40;99.90;;;;;;5000472;28;20026;-90
2021/04/28 09:03:01;;;;;;;0.40;0.40;;;12.40;99.90;;;;;;5001443;28;20442;-90
2021/04/28 09:05:28;;;;;;;0.10;0.10;;;12.40;99.90;;;;;;4997990;28;20050;-89
2021/04/28 09:07:54;;;;;;;0.88;0.88;;;12.60;99.90;;;;;;5001599;28;20026;-90
2021/04/28 09:10:24;;;;;;;0.15;0.15;;;12.70;99.90;;;;;;4993493;28;20056;-89
2021/04/28 09:13:04;;;;;;;0.40;0.40;;;12.60;99.90;;;;;;4996353;28;20403;-88
2021/04/28 09:15:36;;;;;;;0.75;0.75;;;12.60;99.90;;;;;;5004906;28;20486;-88
2021/04/28 09:18:04;;;;;;;0.60;0.55;;;12.70;99.90;;;;;;5002002;28;20490;-88
2021/04/28 09:20:37;;;;;;;0.47;0.47;;;12.70;99.90;;;;;;4999022;28;20028;-89
2021/04/28 09:23:08;;;;;;;0.20;0.20;;;12.60;99.90;;;;;;5004304;28;20033;-88
2021/04/28 09:25:55;;;;;;;0.45;0.45;;;12.70;99.90;;;;;;5006750;28;20834;-89
2021/04/28 09:28:34;;;;;;;0.40;0.40;;;12.70;99.90;;;;;;5000211;28;20108;-89
2021/04/28 09:31:06;;;;;;;0.38;0.38;;;13.10;99.90;;;;;;5005694;28;20032;-90
2021/04/28 09:33:41;;;;;;;0.10;0.10;;;12.90;99.90;;;;;;5003425;28;20459;-89
2021/04/28 09:36:08;;;;;;;0.73;0.57;;;13.00;99.90;;;;;;5004216;28;20022;-89
2021/04/28 09:38:49;;;;;;;0.55;0.30;;;13.20;99.90;;;;;;5002923;28;20089;-88
2021/04/28 09:41:34;;;;;;;0.50;0.50;;;13.10;99.90;;;;;;4999893;28;20030;-89
2021/04/28 09:44:01;;;;;;;0.20;0.20;;;12.90;99.90;;;;;;5000778;28;20041;-86
2021/04/28 09:46:27;;;;;;;;;;;12.90;99.90;;;;;;5001277;28;20045;-86
2021/04/28 09:49:01;;;;;;;0.65;0.40;;;12.80;99.90;;;;;;5001527;28;20305;-88
2021/04/28 09:51:36;;;;;;;0.17;0.17;;;12.80;99.90;;;;;;5001390;28;20034;-87
2021/04/28 09:54:20;;;;;;;0.40;0.40;;;12.50;99.90;;;;;;5002341;28;20113;-87
2021/04/28 09:56:47;;;;;;;0.30;0.30;;;12.60;99.90;;;;;;4982089;28;20052;-89
2021/04/28 09:59:13;;;;;;;0.05;0.05;;;12.50;99.90;;;;;;5001160;28;20105;-88
2021/04/28 10:01:45;;;;;;;9.90;0.98;;;12.50;99.90;;;;;;4997354;28;20045;-87
2021/04/28 10:04:29;;;;;;;3.10;1.48;;;12.50;99.90;;;;;;5001043;28;20058;-88
2021/04/28 10:07:04;;;;;;;0.63;0.47;;;12.50;99.90;;;;;;5000767;28;20111;-87
2021/04/28 10:09:34;;;;;;;0.30;0.30;;;12.60;99.90;;;;;;4997258;28;20088;-87
2021/04/28 10:12:12;;;;;;;0.13;0.13;;;12.40;99.90;;;;;;5000668;28;20030;-87
2021/04/28 10:14:39;;;;;;;0.57;0.43;;;12.10;99.90;;;;;;4996617;28;20014;-87
2021/04/28 10:17:07;;;;;;;1.55;0.52;;;12.20;99.90;;;;;;5017308;28;20068;-87
2021/04/28 10:19:39;;;;;;;0.10;0.10;;;12.10;1.00;;;;;;5004694;28;20034;-88
2021/04/28 10:22:17;;;;;;;0.30;0.30;;;12.00;1.00;;;;;;5003270;28;20041;-87
2021/04/28 10:24:47;;;;;;;0.35;0.35;;;12.00;1.00;;;;;;4997933;28;20060;-87
2021/04/28 10:27:16;;;;;;;0.20;0.17;;;12.30;99.90;;;;;;4998002;28;20389;-87
2021/04/28 10:29:43;;;;;;;0.30;0.30;;;12.70;99.90;;;;;;5003834;28;20247;-87
2021/04/28 10:32:12;;;;;;;0.20;0.20;;;13.40;99.90;;;;;;4999822;28;20026;-88
2021/04/28 10:34:57;;;;;;;0.43;0.43;;;13.90;99.90;;;;;;4997029;28;20697;-88
2021/04/28 10:37:33;;;;;;;0.10;0.10;;;14.90;99.90;;;;;;5003863;28;20029;-88
2021/04/28 10:40:13;;;;;;;0.45;0.45;;;15.40;99.90;;;;;;5003547;28;20041;-87
2021/04/28 10:42:40;;;;;;;2.83;0.75;;;16.50;99.90;;;;;;5001485;28;20830;-88
2021/04/28 10:45:10;;;;;;;;;;;17.10;99.90;;;;;;5004179;28;20605;-88
2021/04/28 10:47:44;;;;;;;0.88;0.85;;;17.30;99.90;;;;;;5004246;28;19979;-88
2021/04/28 10:50:37;;;;;;;1.08;0.70;;;17.70;99.90;;;;;;5000812;28;20034;-88
2021/04/28 10:53:21;;;;;;;0.28;0.28;;;17.90;99.90;;;;;;5017554;28;20853;-88
2021/04/28 10:55:54;;;;;;;0.10;0.10;;;18.10;99.90;;;;;;5000714;28;20014;-88
2021/04/28 10:58:27;;;;;;;1.27;0.40;;;18.70;99.90;;;;;;5001060;28;20034;-88
2021/04/28 11:01:07;;;;;;;0.13;0.13;;;18.60;99.90;;;;;;5004106;28;20133;-88
2021/04/28 11:03:34;;;;;;;0.38;0.38;;;17.40;99.90;;;;;;5002857;28;20493;-87
2021/04/28 11:06:22;;;;;;;0.30;0.20;;;16.70;99.90;;;;;;5002912;28;20108;-89
2021/04/28 11:09:06;;;;;;;0.47;0.40;;;16.00;99.90;;;;;;5003533;28;20068;-88
2021/04/28 11:14:18;;;;;;;0.20;0.20;;;14.40;99.90;;;;;;4994449;28;20113;-88
2021/04/28 11:17:16;;;;;;;0.05;0.05;;;14.00;99.90;;;;;;4998313;28;20035;-88
2021/04/28 11:19:43;;;;;;;0.60;0.55;;;13.50;99.90;;;;;;4996614;28;20482;-86
2021/04/28 11:22:36;;;;;;;0.68;0.68;;;13.20;99.90;;;;;;5002737;28;20500;-87
2021/04/28 11:25:16;;;;;;;;;;;12.80;99.90;;;;;;4994889;28;20045;-87
2021/04/28 11:28:03;;;;;;;0.35;0.35;;;12.50;99.90;;;;;;4999680;28;19924;-87
2021/04/28 11:30:43;;;;;;;0.30;0.30;;;12.40;99.90;;;;;;4994829;28;20506;-87
2021/04/28 11:33:17;;;;;;;0.60;0.60;;;12.30;99.90;;;;;;4994141;28;20022;-87
2021/04/28 11:35:47;;;;;;;0.70;0.60;;;12.40;99.90;;;;;;4999236;28;20431;-87
2021/04/28 11:38:18;;;;;;;0.38;0.38;;;12.40;99.90;;;;;;4992818;28;20049;-87
2021/04/28 11:41:07;;;;;;;0.38;0.38;;;12.60;99.90;;;;;;4995507;28;20093;-87
2021/04/28 11:43:46;;;;;;;0.20;0.20;;;12.70;1.00;;;;;;4989288;28;20391;-86
2021/04/28 11:46:22;;;;;;;0.20;0.20;;;12.70;99.90;;;;;;4988674;28;20030;-87
2021/04/28 11:48:54;;;;;;;0.40;0.35;;;12.90;99.90;;;;;;4998928;28;20049;-87
2021/04/28 11:51:27;;;;;;;1.25;1.15;;;13.30;99.90;;;;;;5001189;28;20134;-87
2021/04/28 11:53:57;;;;;;;1.90;0.38;;;13.10;99.90;;;;;;5016304;28;20033;-87
2021/04/28 11:56:43;;;;;;;1.75;1.65;;;12.90;99.90;;;;;;5003168;28;20068;-87
2021/04/28 11:59:26;;;;;;;0.45;0.45;;;12.60;99.90;;;;;;5003726;28;20025;-86
2021/04/28 12:02:01;;;;;;;0.03;0.03;;;11.90;99.90;;;;;;4996107;28;20022;-87
2021/04/28 12:04:36;;;;;;;0.40;0.40;;;11.70;99.90;;;;;;5001134;28;20025;-86
2021/04/28 12:07:03;;;;;;;0.08;0.08;;;11.60;99.90;;;;;;5000943;28;20129;-86
2021/04/28 12:09:42;;;;;;;0.05;0.05;;;11.60;99.90;;;;;;5000222;28;20035;-86
2021/04/28 12:12:15;;;;;;;1.10;0.35;;;11.70;99.90;;;;;;4998560;28;20033;-86
2021/04/28 12:14:45;;;;;;;0.30;0.30;;;11.60;99.90;;;;;;5003130;28;20019;-86
2021/04/28 12:17:12;;;;;;;0.60;0.60;;;11.40;14.90;;;;;;5005524;28;20421;-86
2021/04/28 12:19:45;;;;;;;0.63;0.60;;;11.30;99.90;;;;;;4996855;28;20062;-86
2021/04/28 12:22:12;;;;;;;0.57;0.57;;;11.40;99.90;;;;;;5009926;28;20027;-86
2021/04/28 12:24:40;;;;;;;;;;;11.30;99.90;;;;;;4996369;28;20525;-86
2021/04/28 12:27:22;;;;;;;0.10;0.10;;;11.40;15.40;;;;;;5002419;28;19924;-86
2021/04/28 12:30:04;;;;;;;0.30;0.30;;;11.60;99.90;;;;;;4997345;28;20067;-86
2021/04/28 12:32:34;;;;;;;0.65;0.65;;;11.40;99.90;;;;;;4999479;28;20944;-86
2021/04/28 12:35:27;;;;;;;0.50;0.43;;;11.40;99.90;;;;;;5006255;28;20502;-86
2021/04/28 12:37:59;;;;;;;0.57;0.57;;;11.40;1.00;;;;;;5008029;28;20080;-86
2021/04/28 12:40:52;;;;;;;1.02;1.00;;;11.20;1.00;;;;;;5006384;28;20077;-85
2021/04/28 12:43:26;;;;;;;0.55;0.52;;;11.10;99.90;;;;;;5001747;28;20033;-85
2021/04/28 12:46:00;;;;;;;0.30;0.30;;;10.90;99.90;;;;;;5004865;28;20122;-85
2021/04/28 12:48:26;;;;;;;0.75;0.57;;;10.90;99.90;;;;;;5002925;28;20104;-87
2021/04/28 12:50:52;;;;;;;2.25;0.98;;;10.80;99.90;;;;;;5007751;28;21398;-85
2021/04/28 12:53:22;;;;;;;0.65;0.65;;;10.80;36.40;;;;;;4998902;28;20032;-85
2021/04/28 12:55:52;;;;;;;1.20;0.70;;;10.70;30.60;;;;;;4999240;28;20030;-85
2021/04/28 12:58:23;;;;;;;1.70;1.25;;;10.70;2.10;;;;;;4995067;28;20029;-85
2021/04/28 13:00:53;;;;;;;0.63;0.63;;;10.70;1.00;;;;;;4996741;28;20195;-86
2021/04/28 13:03:24;;;;;;;0.85;0.85;;;10.70;1.00;;;;;;5004265;28;20026;-85